createdAt,value
2022-08-31T00:00:22.086Z,0.00
2022-08-31T00:01:22.098Z,0.00
2022-08-31T00:02:22.141Z,0.00
2022-08-31T00:03:22.068Z,0.00
2022-08-31T00:04:22.100Z,0.00
2022-08-31T00:05:22.050Z,0.00
2022-08-31T00:06:22.027Z,0.00
2022-08-31T00:07:22.009Z,0.00
2022-08-31T00:08:22.018Z,0.00
2022-08-31T00:09:21.999Z,0.00
2022-08-31T00:10:31.907Z,0.00
2022-08-31T00:11:22.982Z,0.00
2022-08-31T00:12:21.960Z,0.00
2022-08-31T00:13:21.963Z,0.00
2022-08-31T00:14:21.930Z,0.00
2022-08-31T00:15:22.101Z,0.00
2022-08-31T00:16:21.951Z,0.00
2022-08-31T00:17:21.891Z,0.00
2022-08-31T00:18:21.912Z,0.00
2022-08-31T00:19:21.885Z,0.00
2022-08-31T00:20:33.238Z,0.00
2022-08-31T00:21:22.853Z,0.00
2022-08-31T00:22:21.843Z,0.00
2022-08-31T00:23:21.834Z,0.00
2022-08-31T00:24:21.823Z,0.00
2022-08-31T00:25:21.816Z,0.00
2022-08-31T00:26:21.804Z,0.00
2022-08-31T00:27:21.785Z,0.00
2022-08-31T00:28:21.792Z,0.00
2022-08-31T00:29:21.764Z,0.00
2022-08-31T00:30:21.754Z,0.00
2022-08-31T00:31:21.901Z,0.00
2022-08-31T00:32:22.961Z,0.00
2022-08-31T00:33:21.729Z,0.00
2022-08-31T00:34:21.705Z,0.00
2022-08-31T00:35:21.706Z,0.00
2022-08-31T00:36:21.686Z,0.00
2022-08-31T00:37:21.672Z,0.00
2022-08-31T00:38:21.693Z,0.00
2022-08-31T00:39:21.660Z,0.00
2022-08-31T00:40:21.658Z,0.00
2022-08-31T00:41:21.640Z,0.00
2022-08-31T00:42:21.637Z,0.00
2022-08-31T00:43:21.619Z,0.00
2022-08-31T00:44:21.600Z,0.00
2022-08-31T00:45:21.607Z,0.00
2022-08-31T00:46:21.570Z,0.00
2022-08-31T00:47:21.574Z,0.00
2022-08-31T00:48:21.559Z,0.00
2022-08-31T00:49:21.547Z,0.00
2022-08-31T00:50:21.520Z,0.00
2022-08-31T00:51:21.529Z,0.00
2022-08-31T00:52:21.522Z,0.00
2022-08-31T00:53:21.531Z,0.00
2022-08-31T00:54:21.495Z,0.00
2022-08-31T00:55:21.487Z,0.00
2022-08-31T00:56:21.462Z,0.00
2022-08-31T00:57:21.451Z,0.00
2022-08-31T00:58:22.471Z,0.00
2022-08-31T00:59:21.422Z,0.00
2022-08-31T01:00:21.422Z,0.00
2022-08-31T01:01:21.457Z,0.00
2022-08-31T01:02:21.469Z,0.00
2022-08-31T01:03:21.392Z,0.00
2022-08-31T01:04:21.365Z,0.00
2022-08-31T01:05:21.370Z,0.00
2022-08-31T01:06:21.348Z,0.00
2022-08-31T01:07:21.335Z,0.00
2022-08-31T01:08:23.932Z,0.00
2022-08-31T01:09:22.319Z,0.00
2022-08-31T01:10:21.303Z,0.00
2022-08-31T01:11:21.294Z,0.00
2022-08-31T01:12:21.285Z,0.00
2022-08-31T01:13:21.287Z,0.00
2022-08-31T01:14:21.251Z,0.00
2022-08-31T01:15:21.279Z,0.00
2022-08-31T01:16:21.328Z,0.00
2022-08-31T01:17:21.231Z,0.00
2022-08-31T01:18:21.229Z,0.00
2022-08-31T01:19:21.224Z,0.00
2022-08-31T01:20:21.197Z,0.00
2022-08-31T01:21:21.194Z,0.00
2022-08-31T01:22:21.166Z,0.00
2022-08-31T01:23:21.216Z,0.00
2022-08-31T01:24:21.147Z,0.00
2022-08-31T01:25:21.165Z,0.00
2022-08-31T01:26:21.117Z,0.00
2022-08-31T01:27:21.118Z,0.00
2022-08-31T01:28:21.133Z,0.00
2022-08-31T01:29:21.090Z,0.00
2022-08-31T01:30:21.072Z,0.00
2022-08-31T01:31:21.160Z,0.00
2022-08-31T01:32:21.054Z,0.00
2022-08-31T01:33:21.061Z,0.00
2022-08-31T01:34:21.032Z,0.00
2022-08-31T01:35:21.031Z,0.00
2022-08-31T01:36:21.001Z,0.00
2022-08-31T01:37:25.299Z,0.00
2022-08-31T01:38:22.029Z,0.00
2022-08-31T01:39:20.988Z,0.00
2022-08-31T01:40:21.022Z,0.00
2022-08-31T01:41:20.962Z,0.00
2022-08-31T01:42:20.950Z,0.00
2022-08-31T01:43:20.950Z,0.00
2022-08-31T01:44:20.923Z,0.00
2022-08-31T01:45:20.922Z,0.00
2022-08-31T01:46:20.931Z,0.00
2022-08-31T01:47:21.141Z,0.00
2022-08-31T01:48:20.952Z,0.00
2022-08-31T01:49:20.874Z,0.00
2022-08-31T01:50:20.854Z,0.00
2022-08-31T01:51:20.846Z,0.00
2022-08-31T01:52:20.843Z,0.00
2022-08-31T01:53:20.834Z,0.00
2022-08-31T01:54:20.835Z,0.00
2022-08-31T01:55:20.805Z,0.00
2022-08-31T01:56:20.785Z,0.00
2022-08-31T01:57:21.776Z,0.00
2022-08-31T01:58:21.796Z,0.00
2022-08-31T01:59:20.759Z,0.00
2022-08-31T02:00:20.745Z,0.00
2022-08-31T02:01:31.167Z,0.00
2022-08-31T02:02:21.780Z,0.00
2022-08-31T02:03:20.726Z,0.00
2022-08-31T02:04:20.707Z,0.00
2022-08-31T02:05:20.686Z,0.00
2022-08-31T02:06:20.683Z,0.00
2022-08-31T02:07:20.657Z,0.00
2022-08-31T02:08:20.687Z,0.00
2022-08-31T02:09:20.639Z,0.00
2022-08-31T02:10:20.628Z,0.00
2022-08-31T02:11:20.621Z,0.00
2022-08-31T02:12:20.615Z,0.00
2022-08-31T02:13:20.607Z,0.00
2022-08-31T02:14:20.587Z,0.00
2022-08-31T02:15:20.591Z,0.00
2022-08-31T02:16:20.615Z,0.00
2022-08-31T02:17:20.550Z,0.00
2022-08-31T02:18:20.566Z,0.00
2022-08-31T02:19:20.560Z,0.00
2022-08-31T02:20:20.509Z,0.00
2022-08-31T02:21:20.522Z,0.00
2022-08-31T02:22:20.499Z,0.00
2022-08-31T02:23:20.506Z,0.00
2022-08-31T02:24:20.484Z,0.00
2022-08-31T02:25:20.527Z,0.00
2022-08-31T02:26:20.471Z,0.00
2022-08-31T02:27:20.442Z,0.00
2022-08-31T02:28:20.443Z,0.00
2022-08-31T02:29:20.422Z,0.00
2022-08-31T02:30:20.404Z,0.00
2022-08-31T02:31:20.473Z,0.00
2022-08-31T02:32:20.394Z,0.00
2022-08-31T02:33:20.386Z,0.00
2022-08-31T02:34:20.366Z,0.00
2022-08-31T02:35:20.372Z,0.00
2022-08-31T02:36:20.344Z,0.00
2022-08-31T02:37:20.977Z,0.00
2022-08-31T02:38:20.341Z,0.00
2022-08-31T02:39:20.321Z,0.00
2022-08-31T02:40:20.320Z,0.00
2022-08-31T02:41:20.285Z,0.00
2022-08-31T02:42:20.275Z,0.00
2022-08-31T02:43:24.635Z,0.00
2022-08-31T02:44:20.292Z,0.00
2022-08-31T02:45:20.249Z,0.00
2022-08-31T02:46:20.283Z,0.00
2022-08-31T02:47:20.216Z,0.00
2022-08-31T02:48:20.229Z,0.00
2022-08-31T02:49:20.210Z,0.00
2022-08-31T02:50:20.178Z,0.00
2022-08-31T02:51:20.176Z,0.00
2022-08-31T02:52:20.170Z,0.00
2022-08-31T02:53:20.253Z,0.00
2022-08-31T02:54:20.158Z,0.00
2022-08-31T02:55:20.161Z,0.00
2022-08-31T02:56:20.120Z,0.00
2022-08-31T02:57:20.099Z,0.00
2022-08-31T02:58:23.963Z,0.00
2022-08-31T02:59:20.103Z,0.00
2022-08-31T03:00:20.071Z,0.00
2022-08-31T03:01:20.118Z,0.00
2022-08-31T03:02:20.369Z,0.00
2022-08-31T03:03:20.239Z,0.00
2022-08-31T03:04:20.040Z,0.00
2022-08-31T03:05:20.012Z,0.00
2022-08-31T03:06:20.010Z,0.00
2022-08-31T03:07:19.989Z,0.00
2022-08-31T03:08:20.010Z,0.00
2022-08-31T03:09:19.990Z,0.00
2022-08-31T03:10:19.971Z,0.00
2022-08-31T03:11:19.950Z,0.00
2022-08-31T03:12:19.943Z,0.00
2022-08-31T03:13:20.146Z,0.00
2022-08-31T03:14:19.912Z,0.00
2022-08-31T03:15:19.921Z,0.00
2022-08-31T03:16:19.978Z,0.00
2022-08-31T03:17:19.874Z,0.00
2022-08-31T03:18:19.920Z,0.00
2022-08-31T03:19:20.749Z,0.00
2022-08-31T03:20:19.843Z,0.00
2022-08-31T03:21:19.846Z,0.00
2022-08-31T03:22:19.831Z,0.00
2022-08-31T03:23:20.006Z,0.00
2022-08-31T03:24:19.804Z,0.00
2022-08-31T03:25:19.819Z,0.00
2022-08-31T03:26:19.774Z,0.00
2022-08-31T03:27:19.764Z,0.00
2022-08-31T03:28:19.775Z,0.00
2022-08-31T03:29:19.747Z,0.00
2022-08-31T03:30:19.734Z,0.00
2022-08-31T03:31:19.876Z,0.00
2022-08-31T03:32:19.727Z,0.00
2022-08-31T03:33:19.834Z,0.00
2022-08-31T03:34:19.701Z,0.00
2022-08-31T03:35:19.702Z,0.00
2022-08-31T03:36:19.657Z,0.00
2022-08-31T03:37:19.691Z,0.00
2022-08-31T03:38:19.706Z,0.00
2022-08-31T03:39:19.665Z,0.00
2022-08-31T03:40:19.645Z,0.00
2022-08-31T03:41:19.620Z,0.00
2022-08-31T03:42:19.600Z,0.00
2022-08-31T03:43:19.803Z,0.00
2022-08-31T03:44:19.598Z,0.00
2022-08-31T03:45:19.578Z,0.00
2022-08-31T03:46:19.645Z,0.00
2022-08-31T03:47:19.538Z,0.00
2022-08-31T03:48:19.589Z,0.00
2022-08-31T03:49:19.519Z,0.00
2022-08-31T03:50:19.511Z,0.00
2022-08-31T03:51:19.499Z,0.00
2022-08-31T03:52:19.479Z,0.00
2022-08-31T03:53:22.866Z,0.00
2022-08-31T03:54:19.522Z,0.00
2022-08-31T03:55:19.450Z,0.00
2022-08-31T03:56:19.445Z,0.00
2022-08-31T03:57:19.423Z,0.00
2022-08-31T03:58:19.448Z,0.00
2022-08-31T03:59:19.433Z,0.00
2022-08-31T04:00:19.422Z,0.00
2022-08-31T04:01:19.463Z,0.00
2022-08-31T04:02:19.404Z,0.00
2022-08-31T04:03:19.511Z,0.00
2022-08-31T04:04:19.463Z,0.00
2022-08-31T04:05:19.348Z,0.00
2022-08-31T04:06:19.330Z,0.00
2022-08-31T04:07:19.313Z,0.00
2022-08-31T04:08:19.340Z,0.00
2022-08-31T04:09:19.305Z,0.00
2022-08-31T04:10:19.303Z,0.00
2022-08-31T04:11:25.507Z,0.00
2022-08-31T04:12:20.262Z,0.00
2022-08-31T04:13:19.442Z,0.00
2022-08-31T04:14:19.248Z,0.00
2022-08-31T04:15:19.244Z,0.00
2022-08-31T04:16:19.265Z,0.00
2022-08-31T04:17:19.208Z,0.00
2022-08-31T04:18:19.206Z,0.00
2022-08-31T04:19:19.176Z,4.00
2022-08-31T04:20:19.166Z,4.00
2022-08-31T04:21:20.170Z,4.00
2022-08-31T04:22:19.145Z,0.00
2022-08-31T04:23:19.224Z,4.00
2022-08-31T04:24:19.127Z,4.00
2022-08-31T04:25:19.117Z,8.00
2022-08-31T04:26:19.092Z,4.00
2022-08-31T04:27:19.097Z,8.00
2022-08-31T04:28:19.101Z,8.00
2022-08-31T04:29:19.065Z,8.00
2022-08-31T04:30:19.058Z,8.00
2022-08-31T04:31:19.117Z,12.00
2022-08-31T04:32:19.050Z,12.00
2022-08-31T04:33:19.228Z,12.00
2022-08-31T04:34:19.017Z,16.00
2022-08-31T04:35:19.008Z,16.00
2022-08-31T04:36:18.984Z,20.00
2022-08-31T04:37:18.981Z,24.00
2022-08-31T04:38:18.982Z,24.00
2022-08-31T04:39:18.950Z,32.00
2022-08-31T04:40:19.100Z,32.00
2022-08-31T04:41:18.930Z,40.00
2022-08-31T04:42:18.927Z,44.00
2022-08-31T04:43:19.090Z,48.00
2022-08-31T04:44:20.044Z,52.00
2022-08-31T04:45:18.891Z,60.00
2022-08-31T04:46:18.982Z,64.00
2022-08-31T04:47:18.870Z,72.00
2022-08-31T04:48:18.870Z,80.00
2022-08-31T04:49:18.854Z,88.00
2022-08-31T04:50:18.844Z,92.00
2022-08-31T04:51:18.829Z,96.00
2022-08-31T04:52:18.812Z,104.00
2022-08-31T04:53:19.957Z,108.00
2022-08-31T04:54:18.809Z,116.00
2022-08-31T04:55:18.764Z,120.00
2022-08-31T04:56:18.761Z,124.00
2022-08-31T04:57:18.754Z,128.00
2022-08-31T04:58:18.769Z,132.00
2022-08-31T04:59:18.723Z,136.00
2022-08-31T05:00:19.136Z,140.00
2022-08-31T05:01:18.769Z,144.00
2022-08-31T05:02:18.721Z,148.00
2022-08-31T05:03:18.884Z,152.00
2022-08-31T05:04:18.679Z,156.00
2022-08-31T05:05:18.652Z,160.00
2022-08-31T05:06:18.628Z,164.00
2022-08-31T05:07:18.648Z,168.00
2022-08-31T05:08:18.673Z,172.00
2022-08-31T05:09:18.606Z,180.00
2022-08-31T05:10:18.600Z,188.00
2022-08-31T05:11:22.948Z,196.00
2022-08-31T05:12:19.568Z,200.00
2022-08-31T05:13:18.752Z,208.00
2022-08-31T05:14:18.810Z,216.00
2022-08-31T05:15:18.538Z,220.00
2022-08-31T05:16:18.649Z,224.00
2022-08-31T05:17:18.519Z,232.00
2022-08-31T05:18:18.588Z,236.00
2022-08-31T05:19:18.488Z,240.00
2022-08-31T05:20:18.497Z,248.00
2022-08-31T05:21:18.496Z,248.00
2022-08-31T05:22:18.457Z,252.00
2022-08-31T05:23:18.585Z,264.00
2022-08-31T05:24:18.445Z,264.00
2022-08-31T05:25:18.447Z,276.00
2022-08-31T05:26:18.412Z,284.00
2022-08-31T05:27:18.410Z,296.00
2022-08-31T05:28:18.410Z,300.00
2022-08-31T05:29:18.384Z,312.00
2022-08-31T05:30:18.378Z,320.00
2022-08-31T05:31:18.405Z,328.00
2022-08-31T05:32:18.360Z,336.00
2022-08-31T05:33:18.477Z,340.00
2022-08-31T05:34:18.339Z,344.00
2022-08-31T05:35:18.305Z,348.00
2022-08-31T05:36:18.294Z,352.00
2022-08-31T05:37:18.550Z,360.00
2022-08-31T05:38:18.301Z,364.00
2022-08-31T05:39:18.271Z,372.00
2022-08-31T05:40:18.380Z,384.00
2022-08-31T05:41:18.243Z,396.00
2022-08-31T05:42:18.244Z,404.00
2022-08-31T05:43:18.414Z,416.00
2022-08-31T05:44:18.214Z,428.00
2022-08-31T05:45:18.204Z,436.00
2022-08-31T05:46:18.278Z,444.00
2022-08-31T05:47:18.185Z,448.00
2022-08-31T05:48:18.174Z,456.00
2022-08-31T05:49:18.164Z,460.00
2022-08-31T05:50:18.144Z,468.00
2022-08-31T05:51:18.135Z,476.00
2022-08-31T05:52:18.115Z,484.00
2022-08-31T05:53:18.236Z,492.00
2022-08-31T05:54:18.097Z,496.00
2022-08-31T05:55:18.087Z,500.00
2022-08-31T05:56:19.086Z,508.00
2022-08-31T05:57:18.076Z,508.00
2022-08-31T05:58:18.059Z,516.00
2022-08-31T05:59:18.044Z,524.00
2022-08-31T06:00:18.037Z,532.00
2022-08-31T06:01:18.031Z,540.00
2022-08-31T06:02:18.058Z,548.00
2022-08-31T06:03:18.132Z,556.00
2022-08-31T06:04:17.991Z,572.00
2022-08-31T06:05:18.040Z,584.00
2022-08-31T06:06:17.961Z,604.00
2022-08-31T06:07:18.037Z,628.00
2022-08-31T06:08:17.969Z,644.00
2022-08-31T06:09:18.027Z,672.00
2022-08-31T06:10:17.919Z,692.00
2022-08-31T06:11:17.913Z,716.00
2022-08-31T06:12:17.890Z,744.00
2022-08-31T06:13:18.039Z,776.00
2022-08-31T06:14:17.891Z,808.00
2022-08-31T06:15:17.860Z,840.00
2022-08-31T06:16:17.913Z,880.00
2022-08-31T06:17:17.858Z,920.00
2022-08-31T06:18:17.844Z,956.00
2022-08-31T06:19:17.821Z,1004.00
2022-08-31T06:20:18.201Z,1044.00
2022-08-31T06:21:17.791Z,1092.00
2022-08-31T06:22:17.793Z,1140.00
2022-08-31T06:23:17.944Z,1196.00
2022-08-31T06:24:17.764Z,1248.00
2022-08-31T06:25:17.755Z,1304.00
2022-08-31T06:26:17.743Z,1364.00
2022-08-31T06:27:17.752Z,1424.00
2022-08-31T06:28:17.713Z,1480.00
2022-08-31T06:29:17.704Z,1536.00
2022-08-31T06:30:17.703Z,1592.00
2022-08-31T06:31:17.707Z,1648.00
2022-08-31T06:32:17.684Z,1704.00
2022-08-31T06:33:18.074Z,1772.00
2022-08-31T06:34:17.651Z,1840.00
2022-08-31T06:35:17.635Z,1916.00
2022-08-31T06:36:17.634Z,1980.00
2022-08-31T06:37:18.873Z,2040.00
2022-08-31T06:38:17.607Z,2096.00
2022-08-31T06:39:17.597Z,2140.00
2022-08-31T06:40:17.629Z,2172.00
2022-08-31T06:41:17.575Z,2196.00
2022-08-31T06:42:17.577Z,2216.00
2022-08-31T06:43:17.684Z,2236.00
2022-08-31T06:44:17.545Z,2252.00
2022-08-31T06:45:17.526Z,2260.00
2022-08-31T06:46:17.560Z,2280.00
2022-08-31T06:47:21.972Z,2300.00
2022-08-31T06:48:18.478Z,2324.00
2022-08-31T06:49:17.479Z,2352.00
2022-08-31T06:50:17.470Z,2388.00
2022-08-31T06:51:17.470Z,2428.00
2022-08-31T06:52:17.456Z,2468.00
2022-08-31T06:53:17.615Z,2504.00
2022-08-31T06:54:32.657Z,2540.00
2022-08-31T06:55:18.408Z,2576.00
2022-08-31T06:56:21.072Z,2608.00
2022-08-31T06:57:17.400Z,2652.00
2022-08-31T06:58:17.387Z,2696.00
2022-08-31T06:59:17.371Z,2748.00
2022-08-31T07:00:17.361Z,2800.00
2022-08-31T07:01:26.353Z,2860.00
2022-08-31T07:02:18.561Z,2920.00
2022-08-31T07:03:17.523Z,2980.00
2022-08-31T07:04:17.303Z,3036.00
2022-08-31T07:05:19.865Z,3088.00
2022-08-31T07:06:18.292Z,3136.00
2022-08-31T07:07:17.279Z,3200.00
2022-08-31T07:08:17.273Z,3252.00
2022-08-31T07:09:17.272Z,3308.00
2022-08-31T07:10:17.255Z,3376.00
2022-08-31T07:11:17.232Z,3448.00
2022-08-31T07:12:17.260Z,3520.00
2022-08-31T07:13:17.363Z,3584.00
2022-08-31T07:14:17.204Z,3656.00
2022-08-31T07:15:17.187Z,3752.00
2022-08-31T07:16:17.272Z,3820.00
2022-08-31T07:17:17.178Z,3844.00
2022-08-31T07:18:17.166Z,3892.00
2022-08-31T07:19:17.168Z,3936.00
2022-08-31T07:20:17.166Z,3992.00
2022-08-31T07:21:17.118Z,4056.00
2022-08-31T07:22:17.135Z,4104.00
2022-08-31T07:23:17.168Z,4184.00
2022-08-31T07:24:17.087Z,4268.00
2022-08-31T07:25:17.079Z,4352.00
2022-08-31T07:26:17.134Z,4436.00
2022-08-31T07:27:17.071Z,4516.00
2022-08-31T07:28:17.089Z,4572.00
2022-08-31T07:29:17.037Z,4624.00
2022-08-31T07:30:17.043Z,4656.00
2022-08-31T07:31:17.078Z,4668.00
2022-08-31T07:32:17.031Z,4656.00
2022-08-31T07:33:17.011Z,4612.00
2022-08-31T07:34:16.984Z,4548.00
2022-08-31T07:35:16.972Z,4480.00
2022-08-31T07:36:16.989Z,4412.00
2022-08-31T07:37:16.953Z,4348.00
2022-08-31T07:38:16.929Z,4296.00
2022-08-31T07:39:16.932Z,4244.00
2022-08-31T07:40:16.954Z,4184.00
2022-08-31T07:41:16.898Z,4132.00
2022-08-31T07:42:16.921Z,4072.00
2022-08-31T07:43:16.885Z,4020.00
2022-08-31T07:44:16.875Z,3972.00
2022-08-31T07:45:16.860Z,3924.00
2022-08-31T07:46:16.901Z,3880.00
2022-08-31T07:47:16.854Z,3836.00
2022-08-31T07:48:16.830Z,3800.00
2022-08-31T07:49:16.824Z,3764.00
2022-08-31T07:50:16.804Z,3744.00
2022-08-31T07:51:16.793Z,3728.00
2022-08-31T07:52:16.795Z,3724.00
2022-08-31T07:53:16.806Z,3724.00
2022-08-31T07:54:16.773Z,3724.00
2022-08-31T07:55:16.764Z,3728.00
2022-08-31T07:56:16.754Z,3740.00
2022-08-31T07:57:16.745Z,3748.00
2022-08-31T07:58:16.713Z,3752.00
2022-08-31T07:59:16.715Z,3756.00
2022-08-31T08:00:16.685Z,3760.00
2022-08-31T08:01:16.692Z,3764.00
2022-08-31T08:02:17.575Z,3776.00
2022-08-31T08:03:16.845Z,3760.00
2022-08-31T08:04:16.657Z,3752.00
2022-08-31T08:05:16.646Z,3748.00
2022-08-31T08:06:16.669Z,3736.00
2022-08-31T08:07:16.625Z,3732.00
2022-08-31T08:08:16.609Z,3732.00
2022-08-31T08:09:24.392Z,3736.00
2022-08-31T08:10:17.575Z,3736.00
2022-08-31T08:11:16.577Z,3724.00
2022-08-31T08:12:16.617Z,3724.00
2022-08-31T08:13:16.588Z,3732.00
2022-08-31T08:14:16.539Z,3756.00
2022-08-31T08:15:16.539Z,3788.00
2022-08-31T08:16:16.626Z,3820.00
2022-08-31T08:17:16.512Z,3856.00
2022-08-31T08:18:16.557Z,3892.00
2022-08-31T08:19:16.499Z,3944.00
2022-08-31T08:20:16.486Z,3996.00
2022-08-31T08:21:17.478Z,4052.00
2022-08-31T08:22:30.656Z,4112.00
2022-08-31T08:23:18.433Z,4176.00
2022-08-31T08:24:17.428Z,4252.00
2022-08-31T08:25:16.704Z,4336.00
2022-08-31T08:26:21.668Z,4436.00
2022-08-31T08:27:17.425Z,4528.00
2022-08-31T08:28:35.896Z,4624.00
2022-08-31T08:29:17.373Z,4720.00
2022-08-31T08:30:16.376Z,4820.00
2022-08-31T08:31:16.411Z,4932.00
2022-08-31T08:32:17.609Z,5044.00
2022-08-31T08:33:16.337Z,5168.00
2022-08-31T08:34:16.325Z,5292.00
2022-08-31T08:35:16.337Z,5420.00
2022-08-31T08:36:16.295Z,5556.00
2022-08-31T08:37:16.361Z,5680.00
2022-08-31T08:38:16.297Z,5832.00
2022-08-31T08:39:16.267Z,5976.00
2022-08-31T08:40:16.279Z,6120.00
2022-08-31T08:41:16.235Z,6264.00
2022-08-31T08:42:16.236Z,6400.00
2022-08-31T08:43:16.233Z,6536.00
2022-08-31T08:44:18.094Z,6656.00
2022-08-31T08:45:16.195Z,6764.00
2022-08-31T08:46:33.824Z,6872.00
2022-08-31T08:47:17.241Z,6976.00
2022-08-31T08:48:16.158Z,7076.00
2022-08-31T08:49:16.190Z,7168.00
2022-08-31T08:50:16.136Z,7256.00
2022-08-31T08:51:16.134Z,7332.00
2022-08-31T08:52:16.146Z,7392.00
2022-08-31T08:53:16.125Z,7420.00
2022-08-31T08:54:16.099Z,7424.00
2022-08-31T08:55:16.097Z,7408.00
2022-08-31T08:56:32.376Z,7392.00
2022-08-31T08:57:17.106Z,7384.00
2022-08-31T08:58:16.079Z,7380.00
2022-08-31T08:59:19.717Z,7340.00
2022-08-31T09:00:16.021Z,7340.00
2022-08-31T09:01:16.079Z,7364.00
2022-08-31T09:02:16.216Z,7452.00
2022-08-31T09:03:16.051Z,7480.00
2022-08-31T09:04:15.979Z,7480.00
2022-08-31T09:05:15.981Z,7460.00
2022-08-31T09:06:15.986Z,7432.00
2022-08-31T09:07:15.951Z,7392.00
2022-08-31T09:08:15.977Z,7352.00
2022-08-31T09:09:15.925Z,7304.00
2022-08-31T09:10:15.919Z,7316.00
2022-08-31T09:11:15.925Z,7368.00
2022-08-31T09:12:15.923Z,7388.00
2022-08-31T09:13:15.873Z,7392.00
2022-08-31T09:14:15.875Z,7428.00
2022-08-31T09:15:15.877Z,7448.00
2022-08-31T09:16:15.874Z,7460.00
2022-08-31T09:17:15.890Z,7448.00
2022-08-31T09:18:15.825Z,7452.00
2022-08-31T09:19:15.805Z,7468.00
2022-08-31T09:20:15.803Z,7544.00
2022-08-31T09:21:15.816Z,7676.00
2022-08-31T09:22:15.777Z,7976.00
2022-08-31T09:23:15.765Z,8260.00
2022-08-31T09:24:15.755Z,8480.00
2022-08-31T09:25:15.746Z,8900.00
2022-08-31T09:26:16.006Z,9208.00
2022-08-31T09:27:15.746Z,9828.00
2022-08-31T09:28:15.700Z,10048.00
2022-08-31T09:29:15.697Z,10392.00
2022-08-31T09:30:15.688Z,10536.00
2022-08-31T09:31:15.729Z,10836.00
2022-08-31T09:32:15.669Z,10976.00
2022-08-31T09:33:15.676Z,11020.00
2022-08-31T09:34:15.640Z,10988.00
2022-08-31T09:35:15.631Z,11020.00
2022-08-31T09:36:15.620Z,11040.00
2022-08-31T09:37:15.641Z,10676.00
2022-08-31T09:38:15.591Z,10604.00
2022-08-31T09:39:15.612Z,10972.00
2022-08-31T09:40:15.675Z,10968.00
2022-08-31T09:41:15.561Z,11008.00
2022-08-31T09:42:15.594Z,10172.00
2022-08-31T09:43:17.759Z,10668.00
2022-08-31T09:44:15.530Z,10088.00
2022-08-31T09:45:15.535Z,9240.00
2022-08-31T09:46:15.585Z,9368.00
2022-08-31T09:47:15.503Z,10136.00
2022-08-31T09:48:15.494Z,9892.00
2022-08-31T09:49:15.472Z,10716.00
2022-08-31T09:50:15.499Z,11084.00
2022-08-31T09:51:15.465Z,11116.00
2022-08-31T09:52:15.465Z,11212.00
2022-08-31T09:53:15.423Z,11336.00
2022-08-31T09:54:15.415Z,11472.00
2022-08-31T09:55:15.404Z,11444.00
2022-08-31T09:56:15.398Z,11444.00
2022-08-31T09:57:15.396Z,11404.00
2022-08-31T09:58:15.409Z,10956.00
2022-08-31T09:59:15.369Z,10988.00
2022-08-31T10:00:15.456Z,10872.00
2022-08-31T10:01:15.397Z,10836.00
2022-08-31T10:02:15.370Z,11068.00
2022-08-31T10:03:15.307Z,11364.00
2022-08-31T10:04:15.319Z,11540.00
2022-08-31T10:05:15.381Z,11336.00
2022-08-31T10:06:15.288Z,11112.00
2022-08-31T10:07:15.301Z,10832.00
2022-08-31T10:08:19.381Z,10616.00
2022-08-31T10:09:15.249Z,10496.00
2022-08-31T10:10:27.882Z,10284.00
2022-08-31T10:11:16.219Z,10024.00
2022-08-31T10:12:15.238Z,9820.00
2022-08-31T10:13:15.294Z,9740.00
2022-08-31T10:14:15.204Z,9840.00
2022-08-31T10:15:15.787Z,10040.00
2022-08-31T10:16:15.222Z,10260.00
2022-08-31T10:17:15.287Z,10268.00
2022-08-31T10:18:15.153Z,10128.00
2022-08-31T10:19:15.139Z,10040.00
2022-08-31T10:20:15.123Z,9912.00
2022-08-31T10:21:15.131Z,9840.00
2022-08-31T10:22:15.132Z,10012.00
2022-08-31T10:23:15.181Z,10336.00
2022-08-31T10:24:15.090Z,10280.00
2022-08-31T10:25:15.063Z,9384.00
2022-08-31T10:26:15.097Z,9260.00
2022-08-31T10:27:15.042Z,9360.00
2022-08-31T10:28:15.048Z,9296.00
2022-08-31T10:29:20.750Z,9396.00
2022-08-31T10:30:16.019Z,9344.00
2022-08-31T10:31:15.108Z,9464.00
2022-08-31T10:32:14.997Z,9704.00
2022-08-31T10:33:15.030Z,9448.00
2022-08-31T10:34:14.956Z,9260.00
2022-08-31T10:35:14.956Z,9364.00
2022-08-31T10:36:14.949Z,9476.00
2022-08-31T10:37:14.927Z,9496.00
2022-08-31T10:38:19.793Z,9520.00
2022-08-31T10:39:15.915Z,9616.00
2022-08-31T10:40:14.946Z,9700.00
2022-08-31T10:41:14.908Z,9680.00
2022-08-31T10:42:14.892Z,9780.00
2022-08-31T10:43:14.909Z,10012.00
2022-08-31T10:44:14.868Z,10232.00
2022-08-31T10:45:18.450Z,10344.00
2022-08-31T10:46:14.895Z,10168.00
2022-08-31T10:47:22.878Z,9860.00
2022-08-31T10:48:15.809Z,8536.00
2022-08-31T10:49:14.824Z,8316.00
2022-08-31T10:50:14.805Z,8436.00
2022-08-31T10:51:14.812Z,8192.00
2022-08-31T10:52:14.781Z,7388.00
2022-08-31T10:53:14.812Z,7364.00
2022-08-31T10:54:14.754Z,7652.00
2022-08-31T10:55:14.765Z,8284.00
2022-08-31T10:56:14.722Z,7968.00
2022-08-31T10:57:18.790Z,7652.00
2022-08-31T10:58:15.704Z,7796.00
2022-08-31T10:59:14.684Z,7948.00
2022-08-31T11:00:14.697Z,8176.00
2022-08-31T11:01:14.746Z,8580.00
2022-08-31T11:02:14.682Z,8940.00
2022-08-31T11:03:14.699Z,9052.00
2022-08-31T11:04:14.696Z,9128.00
2022-08-31T11:05:14.681Z,9040.00
2022-08-31T11:06:14.625Z,9112.00
2022-08-31T11:07:14.587Z,9520.00
2022-08-31T11:08:14.595Z,9940.00
2022-08-31T11:09:14.918Z,10268.00
2022-08-31T11:10:14.591Z,10192.00
2022-08-31T11:11:14.671Z,9956.00
2022-08-31T11:12:14.559Z,9628.00
2022-08-31T11:13:14.560Z,9464.00
2022-08-31T11:14:14.529Z,9380.00
2022-08-31T11:15:14.596Z,9656.00
2022-08-31T11:16:14.549Z,9748.00
2022-08-31T11:17:14.557Z,9940.00
2022-08-31T11:18:14.543Z,10132.00
2022-08-31T11:19:14.466Z,10164.00
2022-08-31T11:20:14.469Z,9972.00
2022-08-31T11:21:15.115Z,9696.00
2022-08-31T11:22:14.441Z,9608.00
2022-08-31T11:23:14.502Z,9644.00
2022-08-31T11:24:14.436Z,9652.00
2022-08-31T11:25:14.406Z,9448.00
2022-08-31T11:26:14.636Z,9368.00
2022-08-31T11:27:14.395Z,9432.00
2022-08-31T11:28:14.381Z,9604.00
2022-08-31T11:29:14.392Z,9728.00
2022-08-31T11:30:14.342Z,9752.00
2022-08-31T11:31:14.424Z,9808.00
2022-08-31T11:32:14.324Z,9780.00
2022-08-31T11:33:14.351Z,9640.00
2022-08-31T11:34:16.745Z,9420.00
2022-08-31T11:35:14.306Z,9036.00
2022-08-31T11:36:14.276Z,8784.00
2022-08-31T11:37:14.274Z,8632.00
2022-08-31T11:38:14.256Z,8464.00
2022-08-31T11:39:14.261Z,8212.00
2022-08-31T11:40:14.331Z,7940.00
2022-08-31T11:41:14.230Z,7704.00
2022-08-31T11:42:14.206Z,7608.00
2022-08-31T11:43:14.223Z,7636.00
2022-08-31T11:44:14.189Z,7740.00
2022-08-31T11:45:14.282Z,7852.00
2022-08-31T11:46:17.400Z,7836.00
2022-08-31T11:47:14.158Z,7792.00
2022-08-31T11:48:14.157Z,7756.00
2022-08-31T11:49:14.139Z,7688.00
2022-08-31T11:50:14.128Z,7732.00
2022-08-31T11:51:14.138Z,7784.00
2022-08-31T11:52:14.111Z,7820.00
2022-08-31T11:53:14.148Z,7884.00
2022-08-31T11:54:14.099Z,7924.00
2022-08-31T11:55:14.082Z,7896.00
2022-08-31T11:56:14.091Z,7888.00
2022-08-31T11:57:14.053Z,7828.00
2022-08-31T11:58:18.435Z,7712.00
2022-08-31T11:59:15.021Z,7644.00
2022-08-31T12:00:14.025Z,7652.00
2022-08-31T12:01:14.021Z,7652.00
2022-08-31T12:02:14.059Z,7592.00
2022-08-31T12:03:14.013Z,7400.00
2022-08-31T12:04:14.025Z,7136.00
2022-08-31T12:05:15.032Z,6744.00
2022-08-31T12:06:13.983Z,6208.00
2022-08-31T12:07:13.950Z,5660.00
2022-08-31T12:08:13.935Z,5148.00
2022-08-31T12:09:13.914Z,4720.00
2022-08-31T12:10:14.087Z,4488.00
2022-08-31T12:11:13.885Z,4320.00
2022-08-31T12:12:13.892Z,4112.00
2022-08-31T12:13:13.875Z,3880.00
2022-08-31T12:14:13.866Z,3632.00
2022-08-31T12:15:13.875Z,3292.00
2022-08-31T12:16:13.906Z,2928.00
2022-08-31T12:17:13.829Z,2612.00
2022-08-31T12:18:13.818Z,2368.00
2022-08-31T12:19:13.807Z,2276.00
2022-08-31T12:20:13.807Z,2312.00
2022-08-31T12:21:13.795Z,2404.00
2022-08-31T12:22:13.775Z,2496.00
2022-08-31T12:23:29.878Z,2516.00
2022-08-31T12:24:15.357Z,2532.00
2022-08-31T12:25:13.769Z,2536.00
2022-08-31T12:26:13.722Z,2568.00
2022-08-31T12:27:13.719Z,2540.00
2022-08-31T12:28:13.719Z,2436.00
2022-08-31T12:29:13.690Z,2300.00
2022-08-31T12:30:13.710Z,2192.00
2022-08-31T12:31:13.748Z,2128.00
2022-08-31T12:32:13.651Z,2080.00